Time;durP1;ratioP1;P1;durP2;ratioP2;P2;SDS_P1;SDS_P2;PMS_P1;PMS_P2;Temp;Humidity;BMP_temperature;BMP_pressure;BME280_temperature;BME280_humidity;BME280_pressure;Samples;Min_cycle;Max_cycle;Signal;HPM_P1;HPM_P2
2022/06/17 00:01:51;;;;;;;2.08;1.02;;;;;;;16.67;57.73;96530.41;5031101;28;24434;-76
2022/06/17 00:04:18;;;;;;;2.88;1.63;;;;;;;16.43;56.33;96533.06;5031041;28;24419;-76
2022/06/17 00:06:48;;;;;;;1.87;1.00;;;;;;;16.44;54.41;96532.13;5030795;28;24439;-76
2022/06/17 00:09:18;;;;;;;3.50;1.33;;;;;;;16.61;53.22;96530.88;5030780;28;24435;-76
2022/06/17 00:11:44;;;;;;;3.72;1.10;;;;;;;16.78;52.90;96534.03;5030877;28;24485;-76
2022/06/17 00:14:15;;;;;;;2.40;1.40;;;;;;;16.91;52.12;96534.78;5031026;28;24540;-76
2022/06/17 00:16:42;;;;;;;1.55;1.27;;;;;;;17.03;52.77;96533.84;5030524;28;24944;-76
2022/06/17 00:19:08;;;;;;;1.50;1.20;;;;;;;17.06;51.87;96536.22;5030917;28;24469;-76
2022/06/17 00:21:38;;;;;;;4.40;1.77;;;;;;;17.12;51.74;96537.53;5030864;28;24928;-75
2022/06/17 00:24:14;;;;;;;1.43;1.17;;;;;;;17.07;52.19;96539.66;5030389;28;24513;-75
2022/06/17 00:26:40;;;;;;;2.30;1.15;;;;;;;16.98;50.75;96546.41;5029918;28;24416;-75
2022/06/17 00:29:11;;;;;;;2.45;1.40;;;;;;;17.14;50.91;96539.06;5030294;28;24423;-75
2022/06/17 00:31:38;;;;;;;5.80;1.50;;;;;;;17.04;51.79;96539.91;5030453;28;24498;-75
2022/06/17 00:34:05;;;;;;;2.00;1.10;;;;;;;17.02;52.30;96542.66;5030276;28;24848;-77
2022/06/17 00:36:32;;;;;;;4.93;1.45;;;;;;;17.04;53.96;96539.91;5030026;28;24426;-75
2022/06/17 00:38:58;;;;;;;2.80;1.35;;;;;;;16.98;54.83;96541.19;5030263;28;24428;-76
2022/06/17 00:41:29;;;;;;;1.77;1.40;;;;;;;16.88;54.53;96541.06;5030184;28;24434;-75
2022/06/17 00:43:55;;;;;;;2.27;1.50;;;;;;;16.83;53.50;96542.34;5029888;28;25042;-75
2022/06/17 00:46:33;;;;;;;3.47;1.30;;;;;;;16.83;52.95;96542.34;5029870;28;24467;-75
2022/06/17 00:49:07;;;;;;;1.75;1.10;;;;;;;16.82;53.90;96533.66;5030138;28;24467;-76
2022/06/17 00:51:41;;;;;;;1.50;1.15;;;;;;;16.77;54.21;96541.03;5023850;28;24436;-75
2022/06/17 00:54:17;;;;;;;1.95;1.20;;;;;;;16.70;54.26;96542.41;5033288;28;24790;-75
2022/06/17 00:56:43;;;;;;;3.40;1.25;;;;;;;16.65;54.53;96545.38;5033131;28;24420;-76
2022/06/17 00:59:13;;;;;;;1.48;1.15;;;;;;;16.65;54.67;96555.84;5031137;28;24423;-76
2022/06/17 01:01:50;;;;;;;3.10;1.17;;;;;;;16.57;54.88;96542.50;5017819;28;24459;-76
2022/06/17 01:04:19;;;;;;;1.95;1.13;;;;;;;16.52;54.81;96547.25;5033164;28;24426;-75
2022/06/17 01:06:50;;;;;;;1.80;1.20;;;;;;;16.39;55.55;96547.31;5033203;28;24424;-75
2022/06/17 01:12:09;;;;;;;3.07;1.17;;;;;;;16.37;55.24;96551.81;5033030;28;24522;-75
2022/06/17 01:14:37;;;;;;;4.57;1.20;;;;;;;16.45;54.83;96552.06;5033124;28;24839;-76
2022/06/17 01:17:05;;;;;;;1.48;1.20;;;;;;;16.55;54.48;96546.19;5033860;28;24801;-76
2022/06/17 01:19:39;;;;;;;2.00;1.23;;;;;;;16.54;54.50;96545.34;5033703;28;24447;-76
2022/06/17 01:22:19;;;;;;;2.28;1.30;;;;;;;16.63;54.27;96542.03;5025052;28;24439;-76
2022/06/17 01:24:50;;;;;;;1.42;1.20;;;;;;;16.36;54.52;96546.72;5012974;28;24424;-76
2022/06/17 01:27:18;;;;;;;3.58;1.10;;;;;;;16.31;54.68;96546.19;5013027;28;24424;-76
2022/06/17 01:29:45;;;;;;;2.40;1.20;;;;;;;16.18;54.75;96547.09;5012834;28;24980;-75
2022/06/17 01:32:13;;;;;;;1.43;1.10;;;;;;;16.30;55.60;96545.38;5013008;28;24553;-76
2022/06/17 01:34:40;;;;;;;3.00;1.30;;;;;;;16.33;55.60;96539.91;5013220;28;24425;-76
2022/06/17 01:37:08;;;;;;;1.60;1.25;;;;;;;16.36;56.19;96542.31;5012851;28;24478;-75
2022/06/17 01:39:35;;;;;;;1.95;1.10;;;;;;;16.41;56.10;96536.75;5012977;28;24482;-75
2022/06/17 01:42:04;;;;;;;1.92;1.40;;;;;;;16.43;56.88;96540.91;5013081;28;24786;-75
2022/06/17 01:44:35;;;;;;;2.30;1.55;;;;;;;16.39;58.47;96544.72;5012685;28;24968;-75
2022/06/17 01:47:05;;;;;;;1.73;1.50;;;;;;;16.32;60.44;96550.50;5012472;28;24432;-76
2022/06/17 01:49:35;;;;;;;3.50;2.10;;;;;;;16.30;61.16;96540.13;5012702;28;24431;-76
2022/06/17 01:52:06;;;;;;;2.50;1.83;;;;;;;16.22;61.86;96534.66;5031502;28;24432;-76
2022/06/17 01:54:37;;;;;;;2.78;2.08;;;;;;;16.16;62.21;96535.09;5032523;28;24451;-76
2022/06/17 01:57:07;;;;;;;2.58;1.70;;;;;;;16.13;62.38;96537.91;5031913;28;24976;-76
2022/06/17 01:59:39;;;;;;;2.72;1.67;;;;;;;16.09;62.98;96550.41;5032031;28;24426;-76
2022/06/17 02:02:06;;;;;;;2.03;1.70;;;;;;;16.07;63.12;96539.22;5031882;28;24416;-76
2022/06/17 02:04:36;;;;;;;2.63;1.80;;;;;;;15.86;63.99;96543.38;5032389;28;24432;-76
2022/06/17 02:07:10;;;;;;;3.08;2.00;;;;;;;15.75;65.14;96544.13;5030983;28;24977;-76
2022/06/17 02:09:37;;;;;;;2.72;1.75;;;;;;;15.71;65.19;96545.28;5027325;28;24844;-76
2022/06/17 02:12:06;;;;;;;2.50;1.90;;;;;;;15.75;64.60;96548.53;5020759;28;24435;-76
2022/06/17 02:14:34;;;;;;;2.40;2.00;;;;;;;15.76;64.71;96542.34;5030522;28;24458;-76
2022/06/17 02:17:01;;;;;;;3.17;1.73;;;;;;;15.81;64.45;96543.69;5031867;28;24432;-76
2022/06/17 02:19:33;;;;;;;1.77;1.60;;;;;;;15.86;63.85;96543.38;5032117;28;24440;-76
2022/06/17 02:22:05;;;;;;;2.37;1.73;;;;;;;15.79;64.38;96547.34;5030815;28;24509;-74
2022/06/17 02:24:32;;;;;;;1.98;1.60;;;;;;;15.92;64.52;96538.53;5032056;28;24420;-74
2022/06/17 02:27:03;;;;;;;1.98;1.58;;;;;;;15.72;65.23;96541.72;5031400;28;24439;-76
2022/06/17 02:29:33;;;;;;;2.80;1.50;;;;;;;15.29;68.16;96544.72;5031476;28;24427;-75
2022/06/17 02:32:03;;;;;;;2.72;1.92;;;;;;;15.22;67.78;96530.44;5027534;28;24439;-75
2022/06/17 02:34:31;;;;;;;3.10;1.80;;;;;;;15.11;68.00;96541.59;5023318;28;24455;-74
2022/06/17 02:37:03;;;;;;;3.30;1.80;;;;;;;15.29;66.22;96533.44;5031320;28;24428;-75
2022/06/17 02:39:30;;;;;;;3.53;1.50;;;;;;;15.19;65.57;96535.84;5028389;28;24448;-75
2022/06/17 02:41:57;;;;;;;1.90;1.50;;;;;;;14.94;67.09;96534.94;5012009;28;24470;-75
2022/06/17 02:44:26;;;;;;;2.10;1.30;;;;;;;14.88;67.54;96534.53;5011703;28;24412;-74
2022/06/17 02:46:56;;;;;;;2.10;1.42;;;;;;;14.81;67.93;96533.25;5017813;28;24439;-75
2022/06/17 02:49:26;;;;;;;2.13;1.60;;;;;;;14.79;68.53;96528.13;5029628;28;24428;-75
2022/06/17 02:51:53;;;;;;;2.38;1.50;;;;;;;14.76;68.58;96531.81;5031321;28;24466;-74
2022/06/17 02:54:27;;;;;;;3.35;1.50;;;;;;;14.86;68.59;96524.16;5031298;28;24535;-74
2022/06/17 02:56:56;;;;;;;2.95;1.48;;;;;;;14.89;68.46;96528.34;5031125;28;24430;-74
2022/06/17 02:59:28;;;;;;;3.10;1.80;;;;;;;14.94;68.46;96527.13;5031082;28;24428;-74
2022/06/17 03:02:01;;;;;;;1.88;1.60;;;;;;;14.98;68.78;96528.56;5022596;28;24424;-75
2022/06/17 03:04:31;;;;;;;2.75;2.03;;;;;;;15.01;69.41;96522.28;5030984;28;24438;-75
2022/06/17 03:06:59;;;;;;;4.40;2.03;;;;;;;15.05;69.48;96526.34;5030396;28;24419;-74
2022/06/17 03:09:28;;;;;;;3.58;1.70;;;;;;;14.95;70.10;96528.78;5030242;28;24430;-75
2022/06/17 03:11:59;;;;;;;3.37;1.90;;;;;;;15.04;69.52;96529.09;5029599;28;24428;-75
2022/06/17 03:14:30;;;;;;;2.38;1.52;;;;;;;15.02;68.96;96529.19;5029415;28;24435;-75
2022/06/17 03:17:06;;;;;;;2.40;1.53;;;;;;;14.95;68.83;96538.38;5030535;28;24979;-75
2022/06/17 03:19:35;;;;;;;1.52;1.23;;;;;;;14.67;70.40;96523.75;5018246;28;24432;-74
2022/06/17 03:22:02;;;;;;;5.70;1.70;;;;;;;14.59;70.50;96532.09;5026706;28;24479;-74
2022/06/17 03:24:38;;;;;;;3.72;1.52;;;;;;;14.63;68.74;96530.94;5030989;28;24431;-75
2022/06/17 03:27:10;;;;;;;2.70;1.30;;;;;;;14.40;69.74;96534.22;5030731;28;24499;-75
2022/06/17 03:29:41;;;;;;;2.40;1.48;;;;;;;14.17;70.21;96531.34;5030882;28;24502;-75
2022/06/17 03:32:15;;;;;;;2.00;1.30;;;;;;;14.12;70.18;96522.16;5030579;28;24933;-75
2022/06/17 03:34:46;;;;;;;2.80;1.50;;;;;;;14.03;70.59;96526.19;5030812;28;24844;-75
2022/06/17 03:37:19;;;;;;;1.90;1.48;;;;;;;14.02;72.03;96527.13;5030676;28;24431;-75
2022/06/17 03:39:49;;;;;;;1.98;1.75;;;;;;;13.93;73.42;96531.16;5030777;28;24426;-75
2022/06/17 03:42:20;;;;;;;2.03;1.60;;;;;;;13.80;74.34;96532.88;5030728;28;24428;-75
2022/06/17 03:44:53;;;;;;;3.90;2.00;;;;;;;13.86;73.82;96529.03;5030428;28;25031;-75
2022/06/17 03:47:26;;;;;;;2.05;1.70;;;;;;;13.91;74.20;96533.03;5016607;28;24527;-75
2022/06/17 03:49:57;;;;;;;3.13;1.73;;;;;;;14.08;73.06;96537.13;5026701;28;24440;-75
2022/06/17 03:52:31;;;;;;;4.63;1.83;;;;;;;14.34;72.17;96532.00;5026865;28;24429;-75
2022/06/17 03:54:58;;;;;;;2.00;1.65;;;;;;;14.04;73.74;96549.53;5010644;28;24961;-74
2022/06/17 03:57:26;;;;;;;5.60;1.40;;;;;;;14.02;73.75;96550.56;5010627;28;24494;-75
2022/06/17 03:59:53;;;;;;;4.95;1.45;;;;;;;14.01;73.73;96557.53;5010834;28;24435;-74
2022/06/17 04:02:26;;;;;;;3.63;1.70;;;;;;;13.77;73.91;96577.31;5010964;28;24922;-75
2022/06/17 04:04:54;;;;;;;1.60;1.33;;;;;;;13.83;74.43;96576.09;5010970;28;24417;-75
2022/06/17 04:07:20;;;;;;;2.05;1.42;;;;;;;13.91;75.03;96571.25;5010580;28;24460;-75
2022/06/17 04:09:49;;;;;;;2.37;1.43;;;;;;;13.80;76.13;96572.75;5010766;28;24443;-75
2022/06/17 04:12:27;;;;;;;2.30;1.40;;;;;;;13.77;76.46;96570.34;5010746;28;24428;-75
2022/06/17 04:14:59;;;;;;;2.43;1.60;;;;;;;13.84;76.30;96569.97;5019627;28;24451;-75
2022/06/17 04:17:33;;;;;;;2.65;1.40;;;;;;;13.90;76.34;96575.59;5030406;28;24418;-75
2022/06/17 04:20:19;;;;;;;5.03;1.40;;;;;;;14.01;75.83;96578.34;5030064;28;24437;-76
2022/06/17 04:22:49;;;;;;;6.30;1.65;;;;;;;14.11;74.64;96583.00;5030425;28;24450;-75
2022/06/17 04:25:19;;;;;;;2.10;1.50;;;;;;;14.29;73.78;96579.22;5032384;28;24416;-75
2022/06/17 04:27:58;;;;;;;2.58;1.60;;;;;;;14.48;73.73;96584.06;5034149;28;24452;-75
2022/06/17 04:30:28;;;;;;;4.70;1.55;;;;;;;14.64;73.58;96589.97;5033605;28;25023;-76
2022/06/17 04:33:00;;;;;;;2.83;1.43;;;;;;;14.64;74.79;96582.13;5034039;28;24507;-76
2022/06/17 04:35:27;;;;;;;3.70;1.92;;;;;;;14.74;73.82;96583.22;5033607;28;24619;-76
2022/06/17 04:37:54;;;;;;;2.30;1.55;;;;;;;14.71;74.32;96587.78;5034010;28;24423;-76
2022/06/17 04:40:31;;;;;;;1.95;1.75;;;;;;;14.81;74.11;96590.63;5033823;28;24440;-75
2022/06/17 04:42:59;;;;;;;3.00;1.85;;;;;;;15.01;72.73;96596.16;5034075;28;24473;-75
2022/06/17 04:45:28;;;;;;;1.80;1.65;;;;;;;15.09;71.44;96595.69;5033728;28;24427;-75
2022/06/17 04:47:57;;;;;;;8.88;1.67;;;;;;;14.88;77.70;96597.13;5033538;28;25018;-75
2022/06/17 04:50:27;;;;;;;3.20;1.73;;;;;;;14.92;77.51;96598.56;5033405;28;24434;-75
2022/06/17 04:52:55;;;;;;;1.60;1.30;;;;;;;14.76;78.44;96601.38;5033673;28;24478;-75
2022/06/17 04:55:26;;;;;;;2.83;1.65;;;;;;;14.53;79.21;96600.25;5032982;28;24499;-75
2022/06/17 04:57:52;;;;;;;3.67;2.05;;;;;;;14.41;80.90;96598.44;5032393;28;24439;-74
2022/06/17 05:00:22;;;;;;;2.22;1.80;;;;;;;14.44;81.96;96599.06;5032579;28;24432;-74
2022/06/17 05:02:48;;;;;;;5.28;2.50;;;;;;;14.60;81.21;96604.13;5019475;28;24440;-75
2022/06/17 05:05:21;;;;;;;4.10;1.88;;;;;;;14.61;75.77;96608.44;5013039;28;24483;-74
2022/06/17 05:07:52;;;;;;;2.88;1.70;;;;;;;14.46;76.76;96604.16;5013126;28;24432;-74
2022/06/17 05:10:22;;;;;;;2.22;1.92;;;;;;;14.82;78.84;96610.56;5013250;28;24795;-75
2022/06/17 05:12:53;;;;;;;4.80;2.40;;;;;;;15.23;82.37;96606.00;5022095;28;24427;-74
2022/06/17 05:15:21;;;;;;;2.78;2.03;;;;;;;15.50;80.95;96607.66;5024209;28;25183;-74
2022/06/17 05:17:49;;;;;;;5.10;2.20;;;;;;;15.76;80.60;96612.84;5032830;28;24415;-75
2022/06/17 05:20:18;;;;;;;3.87;2.13;;;;;;;15.88;79.50;96614.63;5031768;28;24437;-76
2022/06/17 05:22:48;;;;;;;2.70;1.70;;;;;;;16.01;78.48;96625.88;5029601;28;24437;-75
2022/06/17 05:25:19;;;;;;;3.33;1.83;;;;;;;16.22;77.79;96626.13;5032475;28;24515;-75
2022/06/17 05:27:46;;;;;;;2.30;1.58;;;;;;;16.36;73.86;96618.13;5032495;28;24458;-75
2022/06/17 05:30:13;;;;;;;4.43;2.17;;;;;;;16.18;70.11;96620.28;5032461;28;24953;-76
2022/06/17 05:32:41;;;;;;;6.03;1.87;;;;;;;15.95;70.62;96621.94;5032717;28;24474;-75
2022/06/17 05:35:08;;;;;;;3.13;2.22;;;;;;;15.82;71.09;96622.88;5032382;28;24458;-77
2022/06/17 05:37:34;;;;;;;3.45;2.33;;;;;;;15.87;70.78;96626.00;5031527;28;24965;-75
2022/06/17 05:40:01;;;;;;;2.45;1.77;;;;;;;15.82;70.34;96631.56;5032330;28;24945;-75
2022/06/17 05:42:29;;;;;;;5.20;1.93;;;;;;;15.77;70.42;96635.44;5032479;28;24980;-74
2022/06/17 05:44:55;;;;;;;2.38;1.60;;;;;;;15.96;70.11;96633.22;5032297;28;24474;-74
2022/06/17 05:47:22;;;;;;;2.45;1.70;;;;;;;16.17;69.05;96634.31;5031862;28;24988;-74
2022/06/17 05:49:48;;;;;;;2.42;1.75;;;;;;;16.38;67.69;96639.75;5032173;28;24437;-74
2022/06/17 05:52:15;;;;;;;2.60;1.40;;;;;;;16.48;67.23;96657.41;5032253;28;24494;-75
2022/06/17 05:54:42;;;;;;;3.05;1.80;;;;;;;16.49;67.56;96652.03;5032498;28;24502;-74
2022/06/17 05:57:08;;;;;;;2.53;1.75;;;;;;;16.76;66.88;96659.72;5031682;28;24435;-73
2022/06/17 05:59:36;;;;;;;2.40;1.75;;;;;;;17.18;66.45;96654.84;5032012;28;24419;-74
2022/06/17 06:02:03;;;;;;;3.00;1.60;;;;;;;17.46;65.92;96653.59;5031847;28;24432;-74
2022/06/17 06:04:31;;;;;;;2.53;1.70;;;;;;;17.70;64.63;96652.66;5031822;28;25004;-74
2022/06/17 06:06:57;;;;;;;2.00;1.50;;;;;;;17.98;63.94;96659.22;5031794;28;24863;-75
2022/06/17 06:09:25;;;;;;;4.70;2.00;;;;;;;18.23;62.17;96656.34;5031699;28;24814;-74
2022/06/17 06:11:52;;;;;;;4.63;1.40;;;;;;;18.29;61.34;96653.25;5031809;28;24427;-74
2022/06/17 06:14:18;;;;;;;4.75;1.85;;;;;;;17.98;62.89;96656.59;5031474;28;24999;-74
2022/06/17 06:16:46;;;;;;;3.58;1.85;;;;;;;18.07;61.48;96658.53;5031603;28;24477;-74
2022/06/17 06:19:12;;;;;;;2.40;1.75;;;;;;;18.13;61.38;96647.53;5031562;28;24431;-74
2022/06/17 06:21:39;;;;;;;3.50;1.70;;;;;;;18.17;60.88;96646.38;5032282;28;24431;-74
2022/06/17 06:24:06;;;;;;;3.13;1.48;;;;;;;18.42;59.00;96639.13;5031523;28;24822;-74
2022/06/17 06:26:32;;;;;;;1.90;1.38;;;;;;;18.24;58.39;96641.44;5031265;28;24431;-75
2022/06/17 06:28:59;;;;;;;3.50;1.42;;;;;;;18.19;57.29;96647.06;5031308;28;24509;-74
2022/06/17 06:31:31;;;;;;;1.87;1.27;;;;;;;18.36;56.23;96645.72;5031699;28;24446;-74
2022/06/17 06:33:59;;;;;;;2.35;1.40;;;;;;;18.42;56.12;96654.88;5031495;28;24419;-74
2022/06/17 06:36:25;;;;;;;2.20;1.20;;;;;;;18.50;57.03;96652.47;5031093;28;24416;-74
2022/06/17 06:38:54;;;;;;;3.55;1.70;;;;;;;18.50;57.29;96650.69;5031299;28;24988;-74
2022/06/17 06:41:21;;;;;;;2.10;1.27;;;;;;;18.78;57.06;96645.84;5031184;28;24427;-74
2022/06/17 06:43:48;;;;;;;3.85;1.45;;;;;;;18.70;57.36;96649.06;5031135;28;24517;-74
2022/06/17 06:46:17;;;;;;;12.23;1.70;;;;;;;19.01;56.68;96651.84;5030806;28;24999;-75
2022/06/17 06:48:44;;;;;;;3.70;1.60;;;;;;;19.16;55.64;96647.09;5031256;28;24412;-74
2022/06/17 06:51:12;;;;;;;4.80;1.85;;;;;;;19.41;55.58;96644.09;5030964;28;24976;-74
2022/06/17 06:53:38;;;;;;;3.15;1.60;;;;;;;19.69;54.86;96647.00;5031160;28;24423;-74
2022/06/17 06:56:06;;;;;;;2.50;1.40;;;;;;;19.95;54.76;96643.00;5030466;28;24502;-74
2022/06/17 06:58:33;;;;;;;2.15;1.48;;;;;;;20.35;52.84;96638.66;5031305;28;24527;-74
2022/06/17 07:00:59;;;;;;;1.92;1.20;;;;;;;20.73;52.60;96644.03;5030931;28;24486;-74
2022/06/17 07:03:27;;;;;;;3.40;1.50;;;;;;;20.92;50.67;96645.00;5031030;28;24416;-74
2022/06/17 07:05:56;;;;;;;2.72;1.45;;;;;;;20.89;52.06;96655.81;5030608;28;24412;-74
2022/06/17 07:08:26;;;;;;;3.38;1.77;;;;;;;20.49;52.03;96654.06;5030852;28;24415;-74
2022/06/17 07:10:55;;;;;;;4.32;1.88;;;;;;;20.63;51.87;96658.16;5030547;28;24965;-74
2022/06/17 07:13:22;;;;;;;4.53;1.50;;;;;;;21.07;51.34;96655.94;5031022;28;24428;-74
2022/06/17 07:15:49;;;;;;;3.90;1.50;;;;;;;21.34;50.35;96660.50;5030290;28;24871;-74
2022/06/17 07:18:19;;;;;;;2.10;1.50;;;;;;;21.76;53.04;96658.31;5030843;28;24419;-74
2022/06/17 07:20:48;;;;;;;2.75;1.70;;;;;;;22.16;49.96;96651.94;5030404;28;24538;-74
2022/06/17 07:23:17;;;;;;;6.03;1.35;;;;;;;22.11;47.84;96654.16;5030367;28;24412;-74
2022/06/17 07:25:45;;;;;;;2.22;1.45;;;;;;;21.77;47.96;96656.50;5030506;28;24478;-74
2022/06/17 07:28:14;;;;;;;2.58;1.45;;;;;;;21.79;47.70;96663.31;5030477;28;24988;-75
2022/06/17 07:30:41;;;;;;;2.28;1.40;;;;;;;21.85;48.64;96664.56;5030458;28;25048;-74
2022/06/17 07:33:07;;;;;;;3.90;1.60;;;;;;;22.55;52.10;96651.72;5030478;28;24420;-74
2022/06/17 07:35:34;;;;;;;2.83;1.65;;;;;;;22.81;48.34;96655.28;5030038;28;24474;-74
2022/06/17 07:40:48;;;;;;;3.53;1.65;;;;;;;22.51;45.91;96643.28;5030394;28;24453;-74
2022/06/17 07:43:15;;;;;;;3.72;1.70;;;;;;;22.68;46.25;96644.25;5030395;28;24827;-74
2022/06/17 07:45:42;;;;;;;6.10;1.80;;;;;;;22.48;45.59;96648.03;5030112;28;24415;-74
2022/06/17 07:48:12;;;;;;;3.95;1.70;;;;;;;22.37;45.96;96652.53;5030303;28;24481;-74
2022/06/17 07:50:41;;;;;;;5.88;1.65;;;;;;;22.53;46.03;96649.22;5030331;28;24505;-73
2022/06/17 07:53:08;;;;;;;5.03;1.60;;;;;;;22.34;46.87;96652.00;5030453;28;24452;-73
2022/06/17 07:55:35;;;;;;;2.33;1.77;;;;;;;22.28;45.86;96663.13;5030016;28;24459;-74
2022/06/17 07:58:03;;;;;;;5.38;1.42;;;;;;;22.56;46.48;96656.03;5030311;28;24523;-74
2022/06/17 08:00:33;;;;;;;1.90;1.55;;;;;;;22.88;45.62;96651.06;5032558;28;24424;-74
2022/06/17 08:03:00;;;;;;;6.15;1.80;;;;;;;22.84;44.59;96652.34;5034041;28;24454;-74
2022/06/17 08:05:27;;;;;;;2.58;1.80;;;;;;;22.68;45.10;96660.09;5034002;28;24466;-74
2022/06/17 08:07:55;;;;;;;4.03;1.80;;;;;;;22.79;45.05;96654.59;5034320;28;24426;-74
2022/06/17 08:10:26;;;;;;;11.38;1.80;;;;;;;22.64;45.30;96656.94;5033824;28;24962;-74
2022/06/17 08:12:52;;;;;;;2.13;1.40;;;;;;;22.91;44.71;96660.47;5034079;28;24790;-75
2022/06/17 08:15:21;;;;;;;5.20;1.60;;;;;;;23.03;44.92;96655.84;5033415;28;24446;-75
2022/06/17 08:17:48;;;;;;;3.08;1.52;;;;;;;23.77;47.96;96666.00;5034243;28;24458;-74
2022/06/17 08:20:17;;;;;;;4.55;1.70;;;;;;;24.09;44.26;96661.84;5033836;28;24526;-74
2022/06/17 08:22:43;;;;;;;4.80;1.63;;;;;;;24.26;42.82;96655.66;5034046;28;24423;-74
2022/06/17 08:25:10;;;;;;;4.57;1.80;;;;;;;24.07;41.92;96656.72;5033544;28;24416;-75
2022/06/17 08:27:42;;;;;;;2.28;1.58;;;;;;;24.17;41.59;96653.13;5033838;28;24450;-73
2022/06/17 08:30:09;;;;;;;4.03;1.67;;;;;;;24.48;40.36;96654.25;5033943;28;24431;-73
2022/06/17 08:32:47;;;;;;;2.97;1.77;;;;;;;24.08;41.42;96658.38;5033800;28;24427;-73
2022/06/17 08:35:14;;;;;;;3.30;1.50;;;;;;;23.84;41.90;96647.66;5033271;28;24443;-74
2022/06/17 08:37:41;;;;;;;4.75;1.85;;;;;;;23.68;42.09;96648.41;5033632;28;24422;-73
2022/06/17 08:40:25;;;;;;;2.28;1.60;;;;;;;23.91;40.90;96641.59;5033224;28;24482;-75
2022/06/17 08:43:05;;;;;;;2.45;1.60;;;;;;;24.09;41.55;96651.28;5033770;28;24427;-74
2022/06/17 08:45:40;;;;;;;3.65;1.45;;;;;;;25.01;39.85;96644.25;5033234;28;24423;-73
2022/06/17 08:48:19;;;;;;;6.22;2.20;;;;;;;25.27;44.29;96652.88;5033658;28;24423;-74
2022/06/17 08:50:56;;;;;;;2.15;1.60;;;;;;;25.72;46.16;96654.16;5033114;28;24500;-73
2022/06/17 08:53:51;;;;;;;3.90;1.70;;;;;;;25.42;40.87;96658.34;5033443;28;24512;-74
2022/06/17 08:56:26;;;;;;;3.90;1.80;;;;;;;25.60;38.55;96652.88;5032925;28;24498;-74
2022/06/17 08:59:02;;;;;;;1.83;1.30;;;;;;;25.92;37.09;96656.47;5033032;28;24431;-75
2022/06/17 09:01:42;;;;;;;2.25;1.38;;;;;;;26.12;36.90;96660.38;5033386;28;24423;-75
2022/06/17 09:04:26;;;;;;;13.18;1.85;;;;;;;26.20;38.75;96662.19;5033176;28;24526;-74
2022/06/17 09:07:05;;;;;;;4.43;1.20;;;;;;;25.58;34.61;96657.50;5032994;28;24458;-74
2022/06/17 09:09:59;;;;;;;2.40;1.40;;;;;;;26.25;39.19;96655.38;5032871;28;24416;-73
2022/06/17 09:12:45;;;;;;;2.15;1.50;;;;;;;25.76;35.00;96652.00;5031729;28;24434;-74
2022/06/17 09:15:22;;;;;;;2.33;1.55;;;;;;;26.17;34.99;96644.75;5032531;28;24447;-74
2022/06/17 09:18:08;;;;;;;1.70;1.30;;;;;;;26.04;35.47;96650.63;5032636;28;24427;-74
2022/06/17 09:20:39;;;;;;;2.20;1.40;;;;;;;26.29;35.56;96647.84;5032750;28;24435;-73
2022/06/17 09:23:06;;;;;;;3.83;1.45;;;;;;;26.52;35.95;96642.66;5032974;28;24418;-74
2022/06/17 09:25:39;;;;;;;2.67;1.40;;;;;;;26.65;39.05;96642.06;5032396;28;24473;-75
2022/06/17 09:28:10;;;;;;;3.00;1.23;;;;;;;26.70;38.58;96653.84;5032653;28;24416;-74
2022/06/17 09:30:43;;;;;;;3.30;1.40;;;;;;;26.58;36.50;96647.25;5032879;28;24519;-73
2022/06/17 09:33:15;;;;;;;2.60;1.45;;;;;;;26.45;33.46;96641.66;5032812;28;24459;-73
2022/06/17 09:35:49;;;;;;;3.87;1.30;;;;;;;26.23;36.32;96638.78;5032492;28;24523;-74
2022/06/17 09:38:21;;;;;;;2.20;1.38;;;;;;;26.49;34.47;96646.47;5032562;28;24418;-74
2022/06/17 09:40:53;;;;;;;2.45;1.20;;;;;;;26.69;37.86;96646.03;5032318;28;24427;-74
2022/06/17 09:43:25;;;;;;;4.40;1.50;;;;;;;26.47;35.12;96651.13;5032595;28;24416;-74
2022/06/17 09:45:55;;;;;;;2.08;1.42;;;;;;;26.52;33.33;96640.00;5032319;28;24473;-74
2022/06/17 09:48:27;;;;;;;4.80;1.50;;;;;;;26.43;32.19;96641.00;5032321;28;24562;-74
2022/06/17 09:50:59;;;;;;;8.10;1.30;;;;;;;26.81;34.91;96641.97;5032251;28;24428;-74
2022/06/17 09:53:31;;;;;;;2.50;1.52;;;;;;;27.10;34.62;96643.91;5032417;28;24420;-74
2022/06/17 09:56:02;;;;;;;2.60;1.23;;;;;;;26.25;31.97;96635.94;5032215;28;24447;-74
2022/06/17 09:58:34;;;;;;;3.88;1.50;;;;;;;27.01;35.97;96642.31;5032207;28;24419;-74
2022/06/17 10:01:02;;;;;;;1.45;1.30;;;;;;;27.04;32.25;96644.63;5031982;28;24434;-74
2022/06/17 10:03:31;;;;;;;2.83;1.42;;;;;;;26.64;31.77;96643.06;5031969;28;24837;-74
2022/06/17 10:06:12;;;;;;;3.15;1.67;;;;;;;25.57;33.48;96643.41;5031774;28;24419;-74
2022/06/17 10:09:02;;;;;;;3.60;1.38;;;;;;;26.61;33.93;96646.06;5032601;28;24420;-74
2022/06/17 10:11:38;;;;;;;2.13;1.40;;;;;;;27.08;35.58;96642.44;5032083;28;24814;-74
2022/06/17 10:14:17;;;;;;;4.30;1.50;;;;;;;26.02;32.46;96647.31;5031914;28;24443;-74
2022/06/17 10:19:50;;;;;;;1.83;1.10;;;;;;;27.41;32.05;96624.41;5031900;28;24430;-75
2022/06/17 10:22:28;;;;;;;4.35;1.42;;;;;;;27.46;32.87;96632.66;5031839;28;24507;-74
2022/06/17 10:25:04;;;;;;;4.60;1.00;;;;;;;27.63;33.01;96633.34;5031603;28;24427;-74
2022/06/17 10:28:03;;;;;;;4.60;1.42;;;;;;;27.41;32.29;96637.72;5031666;28;24419;-74
2022/06/17 10:30:40;;;;;;;2.17;1.30;;;;;;;27.60;32.74;96639.84;5031412;28;24478;-75
2022/06/17 10:33:11;;;;;;;3.85;1.50;;;;;;;27.55;30.54;96636.06;5031582;28;24477;-74
2022/06/17 10:35:41;;;;;;;2.50;1.42;;;;;;;26.92;30.30;96632.75;5031081;28;24463;-74
2022/06/17 10:38:14;;;;;;;1.60;1.07;;;;;;;27.45;33.30;96634.50;5031471;28;24428;-74
2022/06/17 10:40:42;;;;;;;6.10;1.10;;;;;;;27.64;30.91;96632.31;5031194;28;24482;-74
2022/06/17 10:43:14;;;;;;;1.85;1.02;;;;;;;28.00;32.83;96632.47;5031136;28;24526;-75
2022/06/17 10:45:41;;;;;;;2.20;1.40;;;;;;;27.58;29.05;96635.69;5031132;28;24507;-74
2022/06/17 10:48:16;;;;;;;5.15;1.10;;;;;;;27.93;32.72;96629.72;5031123;28;24431;-74
2022/06/17 10:50:42;;;;;;;3.40;1.05;;;;;;;27.85;29.06;96629.81;5031114;28;24431;-74
2022/06/17 10:53:19;;;;;;;1.77;1.03;;;;;;;27.53;26.15;96622.94;5031143;28;24423;-73
2022/06/17 10:55:48;;;;;;;2.07;1.00;;;;;;;27.48;25.11;96631.47;5030480;28;24857;-74
2022/06/17 10:58:18;;;;;;;3.22;1.40;;;;;;;27.62;29.29;96629.00;5031357;28;24415;-73
2022/06/17 11:00:53;;;;;;;5.32;1.40;;;;;;;27.60;30.72;96621.22;5030793;28;24965;-74
2022/06/17 11:03:27;;;;;;;1.53;1.00;;;;;;;27.34;32.63;96631.44;5031005;28;24557;-74
2022/06/17 11:06:07;;;;;;;1.35;1.02;;;;;;;27.83;28.41;96633.66;5030632;28;24829;-73
2022/06/17 11:08:40;;;;;;;2.70;1.00;;;;;;;27.69;31.39;96624.63;5030957;28;24981;-74
2022/06/17 11:13:56;;;;;;;1.83;1.10;;;;;;;27.72;28.71;96626.91;5030898;28;24427;-73
2022/06/17 11:16:26;;;;;;;1.70;0.90;;;;;;;28.11;30.07;96632.00;5030159;28;24996;-73
2022/06/17 11:18:58;;;;;;;1.63;0.90;;;;;;;28.10;28.54;96632.16;5030452;28;24439;-74
2022/06/17 11:21:28;;;;;;;1.23;0.90;;;;;;;27.86;27.40;96625.31;5030854;28;24423;-75
2022/06/17 11:23:58;;;;;;;2.60;1.13;;;;;;;27.45;27.01;96623.84;5030567;28;24979;-74
2022/06/17 11:26:30;;;;;;;2.00;1.00;;;;;;;26.92;25.78;96616.78;5030374;28;24466;-73
2022/06/17 11:28:59;;;;;;;2.70;1.03;;;;;;;27.03;26.52;96608.41;5030637;28;24847;-73
2022/06/17 11:31:41;;;;;;;1.50;0.88;;;;;;;26.92;26.83;96617.66;5030616;28;24435;-74
2022/06/17 11:34:14;;;;;;;2.03;0.98;;;;;;;27.42;26.65;96613.56;5029723;28;25009;-74
2022/06/17 11:36:55;;;;;;;2.10;0.80;;;;;;;28.28;29.57;96623.78;5030123;28;24797;-74
2022/06/17 11:39:32;;;;;;;1.75;0.77;;;;;;;28.25;27.73;96616.16;5030305;28;24424;-73
2022/06/17 11:41:59;;;;;;;1.40;0.70;;;;;;;28.40;25.51;96619.66;5030765;28;24459;-73
2022/06/17 11:44:27;;;;;;;1.67;0.80;;;;;;;28.36;23.99;96616.50;5030353;28;24945;-74
2022/06/17 11:46:56;;;;;;;1.80;0.90;;;;;;;28.49;24.00;96612.41;5029892;28;24817;-74
2022/06/17 11:49:23;;;;;;;3.10;0.90;;;;;;;28.36;24.84;96607.69;5030226;28;25012;-74
2022/06/17 11:51:55;;;;;;;1.40;0.90;;;;;;;28.30;25.28;96600.47;5030185;28;24793;-74
2022/06/17 11:54:27;;;;;;;1.30;0.80;;;;;;;28.38;27.66;96601.22;5030671;28;24790;-74
2022/06/17 11:56:55;;;;;;;1.80;0.90;;;;;;;28.20;26.79;96598.91;5030019;28;25066;-73
2022/06/17 11:59:24;;;;;;;1.15;0.70;;;;;;;28.07;27.09;96593.44;5030243;28;24787;-73
2022/06/17 12:02:05;;;;;;;5.15;0.90;;;;;;;27.84;27.58;96585.53;5030127;28;24803;-73